Time;durP1;ratioP1;P1;durP2;ratioP2;P2;SDS_P1;SDS_P2;PMS_P1;PMS_P2;Temp;Humidity;BMP_temperature;BMP_pressure;BME280_temperature;BME280_humidity;BME280_pressure;Samples;Min_cycle;Max_cycle;Signal;HPM_P1;HPM_P2
2023/12/19 00:00:38;;;;;;;49.78;11.55;;;;;;;;;;5043596;28;20081;-71
2023/12/19 00:03:05;;;;;;;51.15;12.57;;;;;;;;;;5057883;28;20500;-72
2023/12/19 00:05:33;;;;;;;45.78;11.35;;;;;;;;;;5051374;28;21012;-72
2023/12/19 00:08:00;;;;;;;53.38;11.18;;;;;;;;;;5048276;28;20048;-72
2023/12/19 00:10:27;;;;;;;49.95;11.02;;;;;;;;;;5043355;28;20045;-71
2023/12/19 00:12:55;;;;;;;45.63;10.48;;;;;;;;;;5040721;28;20440;-72
2023/12/19 00:15:23;;;;;;;47.03;10.82;;;;;;;;;;5059836;28;20098;-72
2023/12/19 00:17:51;;;;;;;48.42;11.05;;;;;;;;;;5057486;28;20044;-71
2023/12/19 00:20:18;;;;;;;46.83;12.05;;;;;;;;;;5054272;28;20040;-72
2023/12/19 00:22:46;;;;;;;35.03;11.13;;;;;;;;;;5055982;28;20051;-73
2023/12/19 00:25:13;;;;;;;38.10;12.23;;;;;;;;;;5054240;28;20555;-71
2023/12/19 00:27:40;;;;;;;34.83;11.65;;;;;;;;;;5044972;28;20053;-72
2023/12/19 00:30:08;;;;;;;50.00;13.40;;;;;;;;;;5047786;28;20104;-72
2023/12/19 00:32:35;;;;;;;37.10;11.38;;;;;;;;;;5052162;28;20051;-72
2023/12/19 00:35:04;;;;;;;35.92;12.68;;;;;;;;;;5044497;28;20041;-71
2023/12/19 00:37:31;;;;;;;41.92;12.43;;;;;;;;;;5046939;28;20057;-71
2023/12/19 00:39:59;;;;;;;39.70;13.85;;;;;;;;;;5045940;28;20477;-71
2023/12/19 00:42:26;;;;;;;43.20;14.13;;;;;;;;;;5047499;28;20060;-71
2023/12/19 00:44:53;;;;;;;43.15;15.30;;;;;;;;;;5050738;28;20043;-71
2023/12/19 00:47:20;;;;;;;40.00;14.30;;;;;;;;;;5045782;28;20496;-71
2023/12/19 00:49:47;;;;;;;55.17;15.30;;;;;;;;;;5048028;28;20064;-71
2023/12/19 00:52:16;;;;;;;49.75;16.15;;;;;;;;;;5049377;28;20448;-71
2023/12/19 00:54:43;;;;;;;45.17;14.27;;;;;;;;;;5048040;28;20049;-71
2023/12/19 00:57:11;;;;;;;54.00;15.77;;;;;;;;;;5045886;28;20392;-71
2023/12/19 00:59:38;;;;;;;53.45;16.30;;;;;;;;;;5053272;28;20714;-71
2023/12/19 01:02:07;;;;;;;41.65;14.52;;;;;;;;;;5049733;28;20053;-71
2023/12/19 01:04:35;;;;;;;44.90;14.25;;;;;;;;;;5046614;28;20456;-71
2023/12/19 01:07:02;;;;;;;39.22;13.00;;;;;;;;;;5041459;28;20124;-71
2023/12/19 01:09:31;;;;;;;37.75;12.18;;;;;;;;;;5049711;28;20052;-71
2023/12/19 01:11:59;;;;;;;33.00;11.88;;;;;;;;;;5044562;28;20552;-71
2023/12/19 01:14:26;;;;;;;33.30;12.98;;;;;;;;;;5051992;28;20396;-71
2023/12/19 01:16:53;;;;;;;31.55;12.15;;;;;;;;;;5044325;28;20416;-71
2023/12/19 01:19:20;;;;;;;28.73;11.52;;;;;;;;;;5044876;28;20148;-71
2023/12/19 01:21:48;;;;;;;27.33;10.27;;;;;;;;;;5030071;28;20523;-71
2023/12/19 01:24:15;;;;;;;28.75;11.45;;;;;;;;;;5033704;28;20041;-71
2023/12/19 01:26:44;;;;;;;29.95;12.05;;;;;;;;;;5024715;28;20087;-71
2023/12/19 01:29:12;;;;;;;35.80;11.40;;;;;;;;;;5051380;28;20055;-71
2023/12/19 01:31:39;;;;;;;30.00;11.63;;;;;;;;;;5047961;28;20045;-71
2023/12/19 01:34:06;;;;;;;29.52;11.25;;;;;;;;;;5025965;28;20049;-71
2023/12/19 01:36:33;;;;;;;34.15;11.88;;;;;;;;;;5030590;28;20356;-71
2023/12/19 01:39:01;;;;;;;33.60;12.00;;;;;;;;;;5052495;28;20076;-71
2023/12/19 01:41:28;;;;;;;32.25;13.07;;;;;;;;;;5044082;28;20071;-71
2023/12/19 01:44:00;;;;;;;32.33;12.43;;;;;;;;;;5030584;28;20050;-71
2023/12/19 01:46:27;;;;;;;41.78;13.02;;;;;;;;;;5053938;28;20053;-71
2023/12/19 01:48:54;;;;;;;32.75;12.73;;;;;;;;;;5050792;28;20179;-71
2023/12/19 01:51:22;;;;;;;34.97;13.02;;;;;;;;;;5047276;28;20432;-71
2023/12/19 01:53:50;;;;;;;34.50;12.43;;;;;;;;;;5048585;28;20049;-71
2023/12/19 01:56:19;;;;;;;29.92;12.18;;;;;;;;;;5053007;28;20049;-70
2023/12/19 01:58:46;;;;;;;33.00;11.85;;;;;;;;;;5050620;28;20052;-70
2023/12/19 02:01:16;;;;;;;31.88;12.75;;;;;;;;;;5039010;28;20057;-70
2023/12/19 02:03:44;;;;;;;25.67;11.38;;;;;;;;;;5023051;28;20087;-70
2023/12/19 02:06:12;;;;;;;33.65;11.73;;;;;;;;;;5044175;28;20404;-70
2023/12/19 02:08:39;;;;;;;30.58;12.05;;;;;;;;;;5045422;28;20056;-70
2023/12/19 02:11:07;;;;;;;31.65;12.52;;;;;;;;;;5036327;28;20408;-70
2023/12/19 02:13:34;;;;;;;30.67;11.73;;;;;;;;;;5061461;28;20055;-70
2023/12/19 02:16:01;;;;;;;28.15;11.43;;;;;;;;;;5048608;28;21178;-71
2023/12/19 02:18:30;;;;;;;30.52;12.57;;;;;;;;;;5045604;28;20049;-70
2023/12/19 02:20:57;;;;;;;30.45;12.45;;;;;;;;;;5029589;28;20056;-70
2023/12/19 02:23:25;;;;;;;30.65;11.93;;;;;;;;;;5052049;28;20500;-70
2023/12/19 02:25:53;;;;;;;33.42;12.15;;;;;;;;;;5055530;28;20055;-70
2023/12/19 02:28:20;;;;;;;30.23;12.07;;;;;;;;;;5045347;28;20044;-70
2023/12/19 02:30:47;;;;;;;32.83;12.02;;;;;;;;;;5056730;28;20132;-70
2023/12/19 02:33:15;;;;;;;33.65;12.85;;;;;;;;;;5026905;28;20485;-71
2023/12/19 02:35:42;;;;;;;34.20;12.57;;;;;;;;;;5048405;28;20052;-71
2023/12/19 02:38:09;;;;;;;37.33;13.77;;;;;;;;;;5054764;28;20079;-70
2023/12/19 02:40:38;;;;;;;29.63;12.07;;;;;;;;;;5047705;28;20045;-70
2023/12/19 02:43:05;;;;;;;34.38;13.02;;;;;;;;;;5051530;28;20484;-70
2023/12/19 02:45:34;;;;;;;35.15;12.45;;;;;;;;;;5029455;28;20052;-70
2023/12/19 02:48:01;;;;;;;29.23;11.93;;;;;;;;;;5049383;28;20052;-71
2023/12/19 02:50:28;;;;;;;31.13;12.85;;;;;;;;;;5027771;28;20508;-70
2023/12/19 02:52:56;;;;;;;34.22;12.02;;;;;;;;;;5053421;28;20049;-70
2023/12/19 02:55:23;;;;;;;34.75;11.68;;;;;;;;;;5027252;28;20053;-70
2023/12/19 02:57:52;;;;;;;31.60;12.30;;;;;;;;;;5053510;28;20049;-70
2023/12/19 03:00:19;;;;;;;35.55;12.52;;;;;;;;;;5058060;28;20139;-70
2023/12/19 03:02:46;;;;;;;28.02;11.40;;;;;;;;;;5028887;28;20128;-70
2023/12/19 03:05:14;;;;;;;35.08;12.73;;;;;;;;;;5024294;28;20061;-70
2023/12/19 03:07:41;;;;;;;36.78;13.70;;;;;;;;;;5055584;28;20391;-70
2023/12/19 03:10:09;;;;;;;33.90;13.85;;;;;;;;;;5048849;28;20102;-70
2023/12/19 03:12:36;;;;;;;35.95;13.07;;;;;;;;;;5042074;28;20056;-70
2023/12/19 03:15:05;;;;;;;33.70;11.80;;;;;;;;;;5053425;28;20036;-70
2023/12/19 03:17:33;;;;;;;30.50;11.63;;;;;;;;;;5048949;28;20056;-70
2023/12/19 03:20:00;;;;;;;30.52;10.98;;;;;;;;;;5052376;28;20051;-71
2023/12/19 03:22:27;;;;;;;29.95;11.85;;;;;;;;;;5052685;28;20049;-70
2023/12/19 03:24:54;;;;;;;32.13;12.32;;;;;;;;;;5051108;28;20056;-70
2023/12/19 03:27:21;;;;;;;37.85;12.93;;;;;;;;;;5050109;28;20045;-70
2023/12/19 03:29:49;;;;;;;26.83;12.13;;;;;;;;;;5041911;28;20064;-70
2023/12/19 03:32:19;;;;;;;34.25;13.77;;;;;;;;;;5041614;28;20048;-70
2023/12/19 03:34:46;;;;;;;37.70;12.75;;;;;;;;;;5052865;28;21142;-70
2023/12/19 03:37:13;;;;;;;31.98;12.52;;;;;;;;;;5046502;28;20049;-70
2023/12/19 03:39:40;;;;;;;32.10;12.05;;;;;;;;;;5049342;28;20507;-70
2023/12/19 03:42:08;;;;;;;38.60;14.07;;;;;;;;;;5053439;28;20064;-70
2023/12/19 03:44:35;;;;;;;40.72;13.73;;;;;;;;;;5055436;28;20041;-70
2023/12/19 03:47:02;;;;;;;36.22;13.10;;;;;;;;;;5042355;28;20045;-70
2023/12/19 03:49:31;;;;;;;36.15;12.40;;;;;;;;;;5046234;28;20055;-71
2023/12/19 03:51:58;;;;;;;30.88;12.45;;;;;;;;;;5045269;28;20045;-70
2023/12/19 03:54:26;;;;;;;31.60;11.43;;;;;;;;;;5044433;28;20497;-70
2023/12/19 03:56:54;;;;;;;29.05;11.27;;;;;;;;;;5046524;28;20038;-70
2023/12/19 03:59:22;;;;;;;33.17;12.45;;;;;;;;;;5048275;28;20511;-70
2023/12/19 04:01:51;;;;;;;28.88;11.90;;;;;;;;;;5052634;28;20457;-70
2023/12/19 04:04:18;;;;;;;27.92;10.95;;;;;;;;;;5052430;28;20057;-70
2023/12/19 04:06:47;;;;;;;28.30;11.15;;;;;;;;;;5052788;28;20071;-70
2023/12/19 04:09:14;;;;;;;27.85;9.98;;;;;;;;;;5050924;28;20444;-70
2023/12/19 04:11:46;;;;;;;35.70;11.38;;;;;;;;;;5051958;28;20061;-70
2023/12/19 04:14:14;;;;;;;27.48;11.20;;;;;;;;;;5040902;28;20041;-70
2023/12/19 04:16:41;;;;;;;31.23;11.18;;;;;;;;;;5052710;28;20075;-70
2023/12/19 04:19:08;;;;;;;32.03;12.20;;;;;;;;;;5031639;28;20049;-70
2023/12/19 04:21:36;;;;;;;42.08;11.27;;;;;;;;;;5058635;28;20429;-70
2023/12/19 04:24:05;;;;;;;32.03;11.02;;;;;;;;;;5033685;28;20056;-69
2023/12/19 04:26:32;;;;;;;27.98;11.68;;;;;;;;;;5048779;28;20041;-69
2023/12/19 04:28:59;;;;;;;27.52;10.88;;;;;;;;;;5027171;28;20049;-70
2023/12/19 04:31:27;;;;;;;35.50;11.77;;;;;;;;;;5050813;28;20045;-70
2023/12/19 04:33:54;;;;;;;32.45;12.27;;;;;;;;;;5051973;28;20412;-70
2023/12/19 04:36:21;;;;;;;29.27;12.13;;;;;;;;;;5030085;28;20075;-70
2023/12/19 04:38:48;;;;;;;33.80;12.00;;;;;;;;;;5048547;28;20052;-70
2023/12/19 04:41:17;;;;;;;39.58;12.88;;;;;;;;;;5046667;28;20063;-70
2023/12/19 04:43:46;;;;;;;31.00;11.40;;;;;;;;;;5049427;28;20072;-70
2023/12/19 04:46:13;;;;;;;37.67;13.43;;;;;;;;;;5052868;28;20463;-71
2023/12/19 04:48:42;;;;;;;35.03;11.57;;;;;;;;;;5031361;28;20053;-70
2023/12/19 04:51:09;;;;;;;34.05;12.30;;;;;;;;;;5034188;28;20051;-70
2023/12/19 04:53:36;;;;;;;38.15;11.57;;;;;;;;;;5048341;28;20048;-70
2023/12/19 04:56:04;;;;;;;34.15;12.70;;;;;;;;;;5041241;28;20084;-70
2023/12/19 04:58:32;;;;;;;29.27;11.85;;;;;;;;;;5029223;28;20639;-71
2023/12/19 05:00:59;;;;;;;39.03;12.15;;;;;;;;;;5054997;28;20048;-70
2023/12/19 05:03:27;;;;;;;37.08;12.85;;;;;;;;;;5048754;28;20412;-70
2023/12/19 05:05:54;;;;;;;30.48;11.75;;;;;;;;;;5052825;28;20044;-70
2023/12/19 05:08:21;;;;;;;39.17;12.15;;;;;;;;;;5028351;28;20053;-70
2023/12/19 05:10:49;;;;;;;28.33;11.23;;;;;;;;;;5026878;28;20111;-70
2023/12/19 05:13:16;;;;;;;32.60;11.57;;;;;;;;;;5039971;28;20076;-70
2023/12/19 05:15:45;;;;;;;26.92;10.27;;;;;;;;;;5043634;28;20045;-70
2023/12/19 05:18:12;;;;;;;29.90;10.02;;;;;;;;;;5034558;28;20569;-70
2023/12/19 05:20:39;;;;;;;32.80;9.65;;;;;;;;;;5052800;28;20476;-70
2023/12/19 05:23:07;;;;;;;30.25;9.13;;;;;;;;;;5046034;28;20127;-70
2023/12/19 05:25:34;;;;;;;21.85;8.73;;;;;;;;;;5052905;28;20059;-70
2023/12/19 05:28:01;;;;;;;28.65;9.57;;;;;;;;;;5031989;28;20045;-70
2023/12/19 05:30:28;;;;;;;26.48;8.85;;;;;;;;;;5051338;28;20626;-70
2023/12/19 05:32:57;;;;;;;24.35;8.45;;;;;;;;;;5045603;28;20140;-70
2023/12/19 05:35:25;;;;;;;18.27;7.55;;;;;;;;;;5046876;28;20067;-70
2023/12/19 05:37:52;;;;;;;22.08;8.55;;;;;;;;;;5048093;28;20056;-70
2023/12/19 05:40:19;;;;;;;23.25;8.30;;;;;;;;;;5052397;28;20061;-70
2023/12/19 05:42:46;;;;;;;21.77;7.68;;;;;;;;;;5029222;28;20057;-70
2023/12/19 05:45:14;;;;;;;23.08;8.25;;;;;;;;;;5044159;28;20071;-70
2023/12/19 05:47:41;;;;;;;24.63;8.52;;;;;;;;;;5050304;28;20044;-70
2023/12/19 05:50:10;;;;;;;23.80;8.55;;;;;;;;;;5047631;28;20472;-70
2023/12/19 05:52:37;;;;;;;20.35;8.13;;;;;;;;;;5050245;28;20500;-70
2023/12/19 05:55:05;;;;;;;25.85;8.07;;;;;;;;;;5051898;28;20511;-70
2023/12/19 05:57:33;;;;;;;23.70;8.27;;;;;;;;;;5038240;28;20948;-70
2023/12/19 06:00:01;;;;;;;23.45;7.60;;;;;;;;;;5031317;28;20481;-70
2023/12/19 06:02:28;;;;;;;22.00;7.72;;;;;;;;;;5046634;28;20047;-70
2023/12/19 06:04:55;;;;;;;20.42;7.93;;;;;;;;;;5053113;28;20045;-70
2023/12/19 06:07:24;;;;;;;19.15;7.63;;;;;;;;;;5023878;28;20137;-70
2023/12/19 06:09:51;;;;;;;21.35;6.97;;;;;;;;;;5052575;28;20049;-69
2023/12/19 06:12:19;;;;;;;20.67;7.75;;;;;;;;;;5048516;28;20135;-70
2023/12/19 06:14:46;;;;;;;21.52;6.78;;;;;;;;;;5033729;28;20128;-70
2023/12/19 06:17:13;;;;;;;22.08;8.10;;;;;;;;;;5032652;28;20056;-70
2023/12/19 06:19:40;;;;;;;23.23;8.32;;;;;;;;;;5051801;28;20543;-70
2023/12/19 06:22:10;;;;;;;25.42;8.30;;;;;;;;;;5051432;28;20072;-69
2023/12/19 06:24:38;;;;;;;23.33;8.95;;;;;;;;;;5047196;28;20135;-69
2023/12/19 06:27:06;;;;;;;23.95;8.55;;;;;;;;;;5046464;28;20061;-70
2023/12/19 06:29:34;;;;;;;18.45;7.10;;;;;;;;;;5045744;28;20052;-70
2023/12/19 06:32:01;;;;;;;21.23;7.72;;;;;;;;;;5046262;28;20056;-70
2023/12/19 06:34:29;;;;;;;26.13;7.53;;;;;;;;;;5051164;28;20459;-69
2023/12/19 06:36:57;;;;;;;29.85;8.15;;;;;;;;;;5055877;28;20049;-69
2023/12/19 06:39:24;;;;;;;22.23;7.55;;;;;;;;;;5037431;28;20045;-69
2023/12/19 06:41:54;;;;;;;19.77;6.97;;;;;;;;;;5049902;28;20048;-68
2023/12/19 06:44:21;;;;;;;21.13;7.53;;;;;;;;;;5028826;28;20557;-69
2023/12/19 06:46:49;;;;;;;19.65;6.95;;;;;;;;;;5050647;28;20041;-70
2023/12/19 06:49:17;;;;;;;23.05;7.40;;;;;;;;;;5051305;28;20061;-69
2023/12/19 06:51:45;;;;;;;21.77;7.25;;;;;;;;;;5051434;28;20044;-70
2023/12/19 06:54:13;;;;;;;23.05;7.32;;;;;;;;;;5054182;28;20123;-70
2023/12/19 06:56:40;;;;;;;19.10;6.75;;;;;;;;;;5048227;28;20045;-70
2023/12/19 06:59:09;;;;;;;23.52;7.00;;;;;;;;;;5050639;28;20053;-70
2023/12/19 07:01:36;;;;;;;17.67;6.20;;;;;;;;;;5032683;28;20071;-70
2023/12/19 07:04:04;;;;;;;17.80;6.05;;;;;;;;;;5026473;28;20053;-70
2023/12/19 07:06:32;;;;;;;17.10;5.70;;;;;;;;;;5051934;28;20529;-70
2023/12/19 07:08:59;;;;;;;17.55;6.18;;;;;;;;;;5026998;28;20053;-71
2023/12/19 07:11:27;;;;;;;23.23;6.32;;;;;;;;;;5050146;28;20048;-71
2023/12/19 07:13:54;;;;;;;19.95;6.30;;;;;;;;;;5052667;28;20053;-71
2023/12/19 07:16:25;;;;;;;17.48;5.85;;;;;;;;;;5052445;28;20049;-70
2023/12/19 07:18:53;;;;;;;28.30;6.97;;;;;;;;;;5039243;28;20040;-70
2023/12/19 07:21:23;;;;;;;19.88;7.15;;;;;;;;;;5039008;28;20065;-70
2023/12/19 07:23:51;;;;;;;25.50;7.22;;;;;;;;;;5051593;28;20049;-70
2023/12/19 07:26:22;;;;;;;23.45;6.85;;;;;;;;;;5049158;28;20118;-70
2023/12/19 07:28:50;;;;;;;24.48;7.28;;;;;;;;;;5043913;28;20053;-70
2023/12/19 07:31:25;;;;;;;28.25;7.63;;;;;;;;;;5050705;28;20064;-70
2023/12/19 07:33:55;;;;;;;26.60;7.75;;;;;;;;;;5052871;28;20052;-70
2023/12/19 07:36:22;;;;;;;29.42;7.50;;;;;;;;;;5044576;28;20045;-70
2023/12/19 07:38:50;;;;;;;25.92;7.25;;;;;;;;;;5031978;28;20064;-70
2023/12/19 07:41:17;;;;;;;33.83;7.85;;;;;;;;;;5050428;28;20098;-70
2023/12/19 07:43:44;;;;;;;31.05;8.57;;;;;;;;;;5051666;28;20110;-70
2023/12/19 07:46:12;;;;;;;28.45;8.23;;;;;;;;;;5046712;28;20492;-70
2023/12/19 07:48:41;;;;;;;24.98;8.02;;;;;;;;;;5028537;28;20123;-70
2023/12/19 07:51:08;;;;;;;23.40;7.80;;;;;;;;;;5055404;28;20055;-70
2023/12/19 07:53:35;;;;;;;33.05;8.65;;;;;;;;;;5055027;28;20053;-70
2023/12/19 07:56:04;;;;;;;31.63;8.50;;;;;;;;;;5051349;28;20056;-71
2023/12/19 07:58:31;;;;;;;23.25;8.18;;;;;;;;;;5025696;28;20061;-71
2023/12/19 08:00:59;;;;;;;35.58;9.40;;;;;;;;;;5052162;28;20492;-71
2023/12/19 08:03:26;;;;;;;27.40;8.50;;;;;;;;;;5032125;28;20409;-71
2023/12/19 08:05:56;;;;;;;30.55;8.20;;;;;;;;;;5051746;28;20045;-71
2023/12/19 08:08:23;;;;;;;28.23;8.90;;;;;;;;;;5033954;28;20055;-71
2023/12/19 08:10:50;;;;;;;31.67;8.23;;;;;;;;;;5047164;28;20053;-71
2023/12/19 08:13:20;;;;;;;33.53;8.25;;;;;;;;;;5045369;28;20480;-71
2023/12/19 08:15:47;;;;;;;33.20;8.38;;;;;;;;;;5054319;28;20064;-71
2023/12/19 08:18:14;;;;;;;34.80;8.70;;;;;;;;;;5039491;28;20044;-71
2023/12/19 08:20:42;;;;;;;45.33;8.70;;;;;;;;;;5032160;28;20045;-71
2023/12/19 08:23:11;;;;;;;47.70;9.35;;;;;;;;;;5050942;28;20049;-71
2023/12/19 08:25:41;;;;;;;34.40;8.43;;;;;;;;;;5049300;28;20460;-71
2023/12/19 08:28:08;;;;;;;29.83;7.30;;;;;;;;;;5049859;28;20056;-71
2023/12/19 08:30:35;;;;;;;40.08;8.63;;;;;;;;;;5051152;28;20086;-71
2023/12/19 08:33:03;;;;;;;39.65;8.82;;;;;;;;;;5036896;28;20044;-71
2023/12/19 08:35:30;;;;;;;32.25;7.72;;;;;;;;;;5053455;28;20051;-71
2023/12/19 08:37:58;;;;;;;35.78;9.25;;;;;;;;;;5031670;28;20072;-71
2023/12/19 08:40:26;;;;;;;41.78;8.60;;;;;;;;;;5044771;28;20389;-71
2023/12/19 08:42:55;;;;;;;30.00;7.80;;;;;;;;;;5047748;28;20465;-71
2023/12/19 08:45:23;;;;;;;34.03;8.25;;;;;;;;;;5051227;28;20059;-71
2023/12/19 08:47:51;;;;;;;33.50;7.63;;;;;;;;;;5047255;28;20060;-71
2023/12/19 08:50:18;;;;;;;40.40;8.57;;;;;;;;;;5048699;28;20085;-71
2023/12/19 08:52:47;;;;;;;55.30;9.32;;;;;;;;;;5048978;28;20045;-71
2023/12/19 08:55:14;;;;;;;38.67;8.60;;;;;;;;;;5045691;28;20515;-71
2023/12/19 08:57:43;;;;;;;45.08;8.73;;;;;;;;;;5028288;28;20049;-71
2023/12/19 09:00:16;;;;;;;49.78;8.70;;;;;;;;;;5028215;28;20578;-71
2023/12/19 09:02:43;;;;;;;43.05;8.57;;;;;;;;;;5047216;28;20048;-71
2023/12/19 09:05:11;;;;;;;35.95;7.95;;;;;;;;;;5051436;28;20049;-71
2023/12/19 09:07:38;;;;;;;39.10;8.57;;;;;;;;;;5035061;28;20396;-71
2023/12/19 09:10:06;;;;;;;45.10;8.68;;;;;;;;;;5025795;28;20485;-71
2023/12/19 09:12:33;;;;;;;49.15;8.02;;;;;;;;;;5049060;28;20055;-71
2023/12/19 09:15:02;;;;;;;45.72;8.18;;;;;;;;;;5048402;28;20388;-71
2023/12/19 09:17:29;;;;;;;33.53;7.85;;;;;;;;;;5049750;28;20036;-71
2023/12/19 09:19:57;;;;;;;55.67;9.52;;;;;;;;;;5049673;28;20057;-71
2023/12/19 09:22:25;;;;;;;45.05;8.40;;;;;;;;;;5050164;28;20053;-71
2023/12/19 09:24:52;;;;;;;37.75;7.97;;;;;;;;;;5044989;28;20052;-71
2023/12/19 09:27:19;;;;;;;44.15;8.13;;;;;;;;;;5030975;28;20057;-71
2023/12/19 09:29:47;;;;;;;46.47;7.90;;;;;;;;;;5044609;28;20056;-71
2023/12/19 09:32:16;;;;;;;35.40;7.35;;;;;;;;;;5052379;28;20049;-71
2023/12/19 09:34:43;;;;;;;38.45;7.80;;;;;;;;;;5052361;28;20381;-71
2023/12/19 09:37:11;;;;;;;50.22;9.13;;;;;;;;;;5032488;28;20045;-71
2023/12/19 09:39:38;;;;;;;42.45;8.40;;;;;;;;;;5059153;28;20638;-71
2023/12/19 09:42:06;;;;;;;31.27;8.38;;;;;;;;;;5057854;28;20056;-71
2023/12/19 09:44:33;;;;;;;41.90;8.77;;;;;;;;;;5035184;28;20083;-71
2023/12/19 09:47:01;;;;;;;32.85;7.35;;;;;;;;;;5054032;28;20056;-71
2023/12/19 09:49:30;;;;;;;32.10;7.57;;;;;;;;;;5026440;28;20049;-71
2023/12/19 09:51:58;;;;;;;46.08;9.63;;;;;;;;;;5040272;28;20056;-71
2023/12/19 09:54:26;;;;;;;25.35;7.57;;;;;;;;;;5037373;28;20041;-71
2023/12/19 09:56:53;;;;;;;30.98;8.10;;;;;;;;;;5048944;28;20045;-71
2023/12/19 09:59:21;;;;;;;26.98;8.55;;;;;;;;;;5052013;28;20750;-71
2023/12/19 10:01:48;;;;;;;34.22;8.75;;;;;;;;;;5049764;28;20129;-71
2023/12/19 10:04:17;;;;;;;37.92;9.13;;;;;;;;;;5050151;28;20420;-71
2023/12/19 10:06:56;;;;;;;38.95;9.48;;;;;;;;;;5055098;28;20136;-71
2023/12/19 10:09:23;;;;;;;31.08;7.93;;;;;;;;;;5032643;28;20056;-71
2023/12/19 10:12:03;;;;;;;35.38;8.40;;;;;;;;;;5032954;28;20116;-71
2023/12/19 10:14:32;;;;;;;28.52;7.95;;;;;;;;;;5029246;28;20180;-71
2023/12/19 10:17:00;;;;;;;24.15;7.53;;;;;;;;;;5050767;28;20547;-71
2023/12/19 10:19:28;;;;;;;38.55;8.38;;;;;;;;;;5051144;28;20049;-71
2023/12/19 10:22:07;;;;;;;27.73;7.03;;;;;;;;;;5056734;28;20418;-72
2023/12/19 10:24:34;;;;;;;21.90;6.28;;;;;;;;;;5052793;28;20044;-71
2023/12/19 10:27:02;;;;;;;26.75;7.80;;;;;;;;;;5051271;28;20051;-71
2023/12/19 10:29:36;;;;;;;21.42;6.80;;;;;;;;;;5059494;28;20105;-72
2023/12/19 10:32:13;;;;;;;21.60;6.45;;;;;;;;;;5038699;28;20164;-71
2023/12/19 10:34:40;;;;;;;19.90;6.40;;;;;;;;;;5049184;28;20049;-71
2023/12/19 10:37:12;;;;;;;16.00;5.78;;;;;;;;;;5053335;28;20049;-71
2023/12/19 10:39:40;;;;;;;16.17;5.50;;;;;;;;;;5052384;28;20045;-71
2023/12/19 10:42:09;;;;;;;15.60;5.60;;;;;;;;;;5056292;28;20055;-71
2023/12/19 10:44:38;;;;;;;19.67;6.13;;;;;;;;;;5053820;28;20056;-71
2023/12/19 10:47:06;;;;;;;18.73;6.78;;;;;;;;;;5052061;28;21577;-71
2023/12/19 10:49:34;;;;;;;23.58;6.97;;;;;;;;;;5050713;28;20118;-71
2023/12/19 10:52:05;;;;;;;31.65;7.68;;;;;;;;;;5035232;28;20172;-71
2023/12/19 10:54:35;;;;;;;24.95;7.78;;;;;;;;;;5029426;28;20045;-71
2023/12/19 10:57:06;;;;;;;16.77;5.90;;;;;;;;;;5051111;28;20049;-72
2023/12/19 10:59:40;;;;;;;19.45;6.15;;;;;;;;;;5045273;28;20063;-72
2023/12/19 11:02:12;;;;;;;22.25;6.47;;;;;;;;;;5047931;28;20748;-71
2023/12/19 11:04:43;;;;;;;20.20;5.95;;;;;;;;;;5058753;28;20049;-72
2023/12/19 11:07:12;;;;;;;19.65;5.72;;;;;;;;;;5029501;28;20057;-71
2023/12/19 11:09:43;;;;;;;23.00;5.60;;;;;;;;;;5032093;28;20049;-71
2023/12/19 11:12:11;;;;;;;17.75;5.53;;;;;;;;;;5036579;28;20067;-71
2023/12/19 11:14:38;;;;;;;15.27;4.43;;;;;;;;;;5049571;28;20080;-71
2023/12/19 11:17:08;;;;;;;12.43;4.18;;;;;;;;;;5049462;28;20060;-71
2023/12/19 11:19:42;;;;;;;11.05;3.70;;;;;;;;;;5047840;28;20056;-71
2023/12/19 11:22:11;;;;;;;11.35;3.03;;;;;;;;;;5053609;28;20053;-71
2023/12/19 11:24:42;;;;;;;9.27;2.60;;;;;;;;;;5054477;28;20048;-71
2023/12/19 11:27:14;;;;;;;9.10;2.70;;;;;;;;;;5042356;28;20061;-71
2023/12/19 11:29:50;;;;;;;8.48;2.47;;;;;;;;;;5045879;28;20103;-71
2023/12/19 11:32:39;;;;;;;7.95;1.92;;;;;;;;;;5050354;28;20064;-71
2023/12/19 11:35:10;;;;;;;5.15;1.90;;;;;;;;;;5046595;28;20168;-71
2023/12/19 11:37:37;;;;;;;6.55;2.10;;;;;;;;;;5049473;28;20056;-71
2023/12/19 11:40:05;;;;;;;6.85;1.83;;;;;;;;;;5050297;28;20128;-71
2023/12/19 11:42:46;;;;;;;11.93;2.30;;;;;;;;;;5047941;28;20083;-71
2023/12/19 11:45:32;;;;;;;5.38;2.03;;;;;;;;;;5048278;28;20484;-71
2023/12/19 11:47:59;;;;;;;12.63;2.38;;;;;;;;;;5049938;28;20045;-71
2023/12/19 11:50:44;;;;;;;5.70;2.28;;;;;;;;;;5049137;28;20048;-71
2023/12/19 11:53:11;;;;;;;8.30;2.00;;;;;;;;;;5044538;28;20047;-71
2023/12/19 11:55:39;;;;;;;10.15;2.42;;;;;;;;;;5048973;28;20084;-71
2023/12/19 11:58:11;;;;;;;6.18;2.10;;;;;;;;;;5048409;28;20095;-71
2023/12/19 12:00:38;;;;;;;6.72;2.10;;;;;;;;;;5050575;28;20534;-71
2023/12/19 12:03:09;;;;;;;8.43;1.88;;;;;;;;;;5054070;28;20044;-71
2023/12/19 12:05:36;;;;;;;7.50;1.60;;;;;;;;;;5048740;28;20045;-71
2023/12/19 12:08:04;;;;;;;3.92;1.35;;;;;;;;;;5051302;28;20540;-71
2023/12/19 12:10:32;;;;;;;5.65;1.25;;;;;;;;;;5042590;28;20041;-72
2023/12/19 12:13:02;;;;;;;5.32;1.20;;;;;;;;;;5050679;28;20411;-72
2023/12/19 12:15:30;;;;;;;3.95;1.10;;;;;;;;;;5056767;28;20056;-71
2023/12/19 12:18:07;;;;;;;4.57;1.08;;;;;;;;;;5028247;28;20052;-71
2023/12/19 12:20:35;;;;;;;3.90;0.90;;;;;;;;;;5028091;28;20051;-71
2023/12/19 12:23:02;;;;;;;3.88;1.00;;;;;;;;;;5047210;28;20045;-71
2023/12/19 12:25:31;;;;;;;4.63;1.08;;;;;;;;;;5039163;28;20045;-71
2023/12/19 12:28:07;;;;;;;3.25;1.33;;;;;;;;;;5028769;28;20403;-71
2023/12/19 12:30:36;;;;;;;4.57;1.38;;;;;;;;;;5029742;28;20049;-71
2023/12/19 12:33:04;;;;;;;6.53;1.05;;;;;;;;;;5027342;28;20049;-71
2023/12/19 12:35:35;;;;;;;3.35;0.82;;;;;;;;;;5022664;28;20049;-71
2023/12/19 12:38:03;;;;;;;3.13;1.00;;;;;;;;;;5041747;28;20481;-71
2023/12/19 12:40:31;;;;;;;3.42;0.90;;;;;;;;;;5022368;28;20511;-72
2023/12/19 12:43:17;;;;;;;2.60;0.90;;;;;;;;;;5025301;28;20052;-71
2023/12/19 12:45:46;;;;;;;3.78;0.80;;;;;;;;;;5024858;28;20164;-71
2023/12/19 12:48:13;;;;;;;6.30;0.85;;;;;;;;;;5027908;28;20075;-71
2023/12/19 12:50:41;;;;;;;3.78;0.93;;;;;;;;;;5044728;28;20041;-71
2023/12/19 12:53:13;;;;;;;4.10;1.10;;;;;;;;;;5044610;28;20057;-71
2023/12/19 12:55:40;;;;;;;2.50;0.93;;;;;;;;;;5048354;28;20114;-71
2023/12/19 12:58:08;;;;;;;4.78;1.02;;;;;;;;;;5052968;28;20500;-71
2023/12/19 13:00:35;;;;;;;5.88;0.95;;;;;;;;;;5050132;28;20048;-71
2023/12/19 13:03:04;;;;;;;4.50;0.93;;;;;;;;;;5031039;28;20133;-71
2023/12/19 13:05:31;;;;;;;6.35;0.95;;;;;;;;;;5048182;28;20053;-71
2023/12/19 13:07:58;;;;;;;2.17;0.88;;;;;;;;;;5046810;28;20049;-71
2023/12/19 13:10:26;;;;;;;5.63;0.95;;;;;;;;;;5038824;28;20500;-71
2023/12/19 13:12:53;;;;;;;5.63;1.02;;;;;;;;;;5043612;28;20052;-70
2023/12/19 13:15:20;;;;;;;3.40;1.00;;;;;;;;;;5055742;28;20049;-70
2023/12/19 13:17:47;;;;;;;5.10;1.38;;;;;;;;;;5053918;28;20045;-70
2023/12/19 13:20:16;;;;;;;7.10;1.05;;;;;;;;;;5028272;28;20060;-70
2023/12/19 13:22:43;;;;;;;6.32;1.08;;;;;;;;;;5046947;28;20044;-70
2023/12/19 13:25:11;;;;;;;3.38;1.20;;;;;;;;;;5052334;28;20055;-70
2023/12/19 13:27:37;;;;;;;8.45;1.23;;;;;;;;;;5046199;28;20059;-70
2023/12/19 13:30:04;;;;;;;8.40;1.67;;;;;;;;;;5046649;28;20049;-70
2023/12/19 13:32:32;;;;;;;5.43;1.58;;;;;;;;;;5054998;28;20052;-70
2023/12/19 13:34:59;;;;;;;5.05;1.63;;;;;;;;;;5043663;28;20045;-70
2023/12/19 13:37:28;;;;;;;5.30;1.73;;;;;;;;;;5030868;28;20507;-70
2023/12/19 13:39:55;;;;;;;4.35;1.63;;;;;;;;;;5046192;28;20055;-70
2023/12/19 13:42:23;;;;;;;10.02;2.58;;;;;;;;;;5032077;28;20052;-70
2023/12/19 13:44:50;;;;;;;10.52;2.38;;;;;;;;;;5048630;28;20057;-70
2023/12/19 13:47:17;;;;;;;7.03;1.92;;;;;;;;;;5049680;28;20048;-71
2023/12/19 13:49:45;;;;;;;5.38;1.95;;;;;;;;;;5050862;28;20056;-71
2023/12/19 13:52:12;;;;;;;11.07;2.00;;;;;;;;;;5031740;28;20567;-71
2023/12/19 13:54:40;;;;;;;11.80;2.08;;;;;;;;;;5051036;28;20051;-71
2023/12/19 13:57:08;;;;;;;4.70;1.70;;;;;;;;;;5047198;28;20053;-71
2023/12/19 13:59:37;;;;;;;8.27;1.98;;;;;;;;;;5053512;28;20400;-71
2023/12/19 14:02:05;;;;;;;11.25;2.15;;;;;;;;;;5042140;28;20127;-71
2023/12/19 14:04:33;;;;;;;6.78;1.92;;;;;;;;;;5047840;28;20080;-71
2023/12/19 14:07:01;;;;;;;11.63;3.03;;;;;;;;;;5053854;28;20056;-71
2023/12/19 14:09:31;;;;;;;12.27;2.90;;;;;;;;;;5051321;28;20408;-71
2023/12/19 14:12:00;;;;;;;14.90;2.70;;;;;;;;;;5057815;28;20128;-71
2023/12/19 14:14:27;;;;;;;16.33;3.20;;;;;;;;;;5028392;28;20103;-71
2023/12/19 14:16:56;;;;;;;16.35;2.60;;;;;;;;;;5055151;28;20119;-71
2023/12/19 14:19:23;;;;;;;19.75;3.58;;;;;;;;;;5049662;28;20534;-71
2023/12/19 14:21:51;;;;;;;18.75;3.40;;;;;;;;;;5030240;28;20061;-71
2023/12/19 14:24:18;;;;;;;15.27;2.45;;;;;;;;;;5054285;28;20135;-71
2023/12/19 14:26:45;;;;;;;14.65;2.92;;;;;;;;;;5047259;28;20060;-71
2023/12/19 14:29:14;;;;;;;12.98;2.75;;;;;;;;;;5052032;28;20049;-71
2023/12/19 14:31:42;;;;;;;13.60;2.80;;;;;;;;;;5053748;28;20045;-71
2023/12/19 14:34:10;;;;;;;17.00;3.05;;;;;;;;;;5037524;28;20052;-71